sensor_id;sensor_type;location;lat;lon;timestamp;temperature;humidity
11079;DHT22;5592;49.234;7.268;2022-11-23T00:01:35;5.20;99.90
11079;DHT22;5592;49.234;7.268;2022-11-23T00:04:07;5.10;99.90
11079;DHT22;5592;49.234;7.268;2022-11-23T00:06:34;5.00;99.90
11079;DHT22;5592;49.234;7.268;2022-11-23T00:09:00;5.00;99.90
11079;DHT22;5592;49.234;7.268;2022-11-23T00:11:26;5.00;99.90
11079;DHT22;5592;49.234;7.268;2022-11-23T00:13:52;5.10;99.90
11079;DHT22;5592;49.234;7.268;2022-11-23T00:16:23;5.00;99.90
11079;DHT22;5592;49.234;7.268;2022-11-23T00:18:52;5.00;99.90
11079;DHT22;5592;49.234;7.268;2022-11-23T00:21:18;4.90;99.90
11079;DHT22;5592;49.234;7.268;2022-11-23T00:23:48;4.90;99.90
11079;DHT22;5592;49.234;7.268;2022-11-23T00:26:15;5.00;99.90
11079;DHT22;5592;49.234;7.268;2022-11-23T00:28:41;5.00;99.90
11079;DHT22;5592;49.234;7.268;2022-11-23T00:31:09;5.00;99.90
11079;DHT22;5592;49.234;7.268;2022-11-23T00:33:38;5.10;99.90
11079;DHT22;5592;49.234;7.268;2022-11-23T00:36:06;5.10;99.90
11079;DHT22;5592;49.234;7.268;2022-11-23T00:38:32;5.20;99.90
11079;DHT22;5592;49.234;7.268;2022-11-23T00:41:03;5.20;99.90
11079;DHT22;5592;49.234;7.268;2022-11-23T00:43:29;5.30;99.90
11079;DHT22;5592;49.234;7.268;2022-11-23T00:48:34;5.50;99.90
11079;DHT22;5592;49.234;7.268;2022-11-23T00:51:01;5.50;99.90
11079;DHT22;5592;49.234;7.268;2022-11-23T00:53:27;5.60;99.90
11079;DHT22;5592;49.234;7.268;2022-11-23T00:55:56;5.60;99.90
11079;DHT22;5592;49.234;7.268;2022-11-23T00:58:24;5.70;99.90
11079;DHT22;5592;49.234;7.268;2022-11-23T01:00:50;5.70;99.90
11079;DHT22;5592;49.234;7.268;2022-11-23T01:03:24;5.70;99.90
11079;DHT22;5592;49.234;7.268;2022-11-23T01:05:52;5.70;99.90
11079;DHT22;5592;49.234;7.268;2022-11-23T01:08:17;5.70;99.90
11079;DHT22;5592;49.234;7.268;2022-11-23T01:10:43;5.80;99.90
11079;DHT22;5592;49.234;7.268;2022-11-23T01:13:08;5.80;99.90
11079;DHT22;5592;49.234;7.268;2022-11-23T01:15:34;5.80;99.90
11079;DHT22;5592;49.234;7.268;2022-11-23T01:18:00;5.80;99.90
11079;DHT22;5592;49.234;7.268;2022-11-23T01:20:25;5.80;99.90
11079;DHT22;5592;49.234;7.268;2022-11-23T01:22:51;5.90;99.90
11079;DHT22;5592;49.234;7.268;2022-11-23T01:25:17;5.90;99.90
11079;DHT22;5592;49.234;7.268;2022-11-23T01:27:43;5.90;99.90
11079;DHT22;5592;49.234;7.268;2022-11-23T01:30:11;6.00;99.90
11079;DHT22;5592;49.234;7.268;2022-11-23T01:32:37;6.00;99.90
11079;DHT22;5592;49.234;7.268;2022-11-23T01:35:03;6.00;99.90
11079;DHT22;5592;49.234;7.268;2022-11-23T01:37:28;6.00;99.90
11079;DHT22;5592;49.234;7.268;2022-11-23T01:39:54;6.10;99.90
11079;DHT22;5592;49.234;7.268;2022-11-23T01:42:20;6.10;99.90
11079;DHT22;5592;49.234;7.268;2022-11-23T01:44:46;6.10;99.90
11079;DHT22;5592;49.234;7.268;2022-11-23T01:47:12;6.10;99.90
11079;DHT22;5592;49.234;7.268;2022-11-23T01:49:46;6.10;99.90
11079;DHT22;5592;49.234;7.268;2022-11-23T01:52:20;6.10;99.90
11079;DHT22;5592;49.234;7.268;2022-11-23T01:54:53;6.10;99.90
11079;DHT22;5592;49.234;7.268;2022-11-23T01:57:34;6.10;99.90
11079;DHT22;5592;49.234;7.268;2022-11-23T02:00:01;6.10;99.90
11079;DHT22;5592;49.234;7.268;2022-11-23T02:02:27;6.20;99.90
11079;DHT22;5592;49.234;7.268;2022-11-23T02:04:56;6.20;99.90
11079;DHT22;5592;49.234;7.268;2022-11-23T02:07:24;6.20;99.90
11079;DHT22;5592;49.234;7.268;2022-11-23T02:09:50;6.20;99.90
11079;DHT22;5592;49.234;7.268;2022-11-23T02:12:16;6.20;99.90
11079;DHT22;5592;49.234;7.268;2022-11-23T02:14:42;6.30;99.90
11079;DHT22;5592;49.234;7.268;2022-11-23T02:17:08;6.30;99.90
11079;DHT22;5592;49.234;7.268;2022-11-23T02:20:04;6.30;99.90
11079;DHT22;5592;49.234;7.268;2022-11-23T02:22:44;6.30;99.90
11079;DHT22;5592;49.234;7.268;2022-11-23T02:28:00;6.30;99.90
11079;DHT22;5592;49.234;7.268;2022-11-23T02:30:28;6.30;99.90
11079;DHT22;5592;49.234;7.268;2022-11-23T02:32:55;6.30;99.90
11079;DHT22;5592;49.234;7.268;2022-11-23T02:35:20;6.30;99.90
11079;DHT22;5592;49.234;7.268;2022-11-23T02:37:46;6.30;99.90
11079;DHT22;5592;49.234;7.268;2022-11-23T02:40:33;6.30;99.90
11079;DHT22;5592;49.234;7.268;2022-11-23T02:42:59;6.30;99.90
11079;DHT22;5592;49.234;7.268;2022-11-23T02:48:09;6.30;99.90
11079;DHT22;5592;49.234;7.268;2022-11-23T02:50:35;6.30;99.90
11079;DHT22;5592;49.234;7.268;2022-11-23T02:53:01;6.30;99.90
11079;DHT22;5592;49.234;7.268;2022-11-23T02:55:26;6.30;99.90
11079;DHT22;5592;49.234;7.268;2022-11-23T02:57:52;6.30;99.90
11079;DHT22;5592;49.234;7.268;2022-11-23T03:00:18;6.30;99.90
11079;DHT22;5592;49.234;7.268;2022-11-23T03:02:43;6.30;99.90
11079;DHT22;5592;49.234;7.268;2022-11-23T03:05:09;6.30;99.90
11079;DHT22;5592;49.234;7.268;2022-11-23T03:07:35;6.30;99.90
11079;DHT22;5592;49.234;7.268;2022-11-23T03:10:00;6.30;99.90
11079;DHT22;5592;49.234;7.268;2022-11-23T03:12:26;6.30;99.90
11079;DHT22;5592;49.234;7.268;2022-11-23T03:14:52;6.30;99.90
11079;DHT22;5592;49.234;7.268;2022-11-23T03:17:17;6.30;99.90
11079;DHT22;5592;49.234;7.268;2022-11-23T03:19:43;6.20;99.90
11079;DHT22;5592;49.234;7.268;2022-11-23T03:22:09;6.20;99.90
11079;DHT22;5592;49.234;7.268;2022-11-23T03:24:35;6.30;99.90
11079;DHT22;5592;49.234;7.268;2022-11-23T03:27:00;6.30;99.90
11079;DHT22;5592;49.234;7.268;2022-11-23T03:29:26;6.30;99.90
11079;DHT22;5592;49.234;7.268;2022-11-23T03:31:53;6.30;99.90
11079;DHT22;5592;49.234;7.268;2022-11-23T03:34:18;6.30;99.90
11079;DHT22;5592;49.234;7.268;2022-11-23T03:36:44;6.30;99.90
11079;DHT22;5592;49.234;7.268;2022-11-23T03:39:10;6.20;99.90
11079;DHT22;5592;49.234;7.268;2022-11-23T03:41:36;6.30;99.90
11079;DHT22;5592;49.234;7.268;2022-11-23T03:44:02;6.30;99.90
11079;DHT22;5592;49.234;7.268;2022-11-23T03:46:28;6.30;99.90
11079;DHT22;5592;49.234;7.268;2022-11-23T03:48:54;6.20;99.90
11079;DHT22;5592;49.234;7.268;2022-11-23T03:51:19;6.30;99.90
11079;DHT22;5592;49.234;7.268;2022-11-23T03:53:45;6.20;99.90
11079;DHT22;5592;49.234;7.268;2022-11-23T03:56:10;6.30;99.90
11079;DHT22;5592;49.234;7.268;2022-11-23T03:58:36;6.30;99.90
11079;DHT22;5592;49.234;7.268;2022-11-23T04:01:02;6.30;99.90
11079;DHT22;5592;49.234;7.268;2022-11-23T04:03:27;6.30;99.90
11079;DHT22;5592;49.234;7.268;2022-11-23T04:05:53;6.30;99.90
11079;DHT22;5592;49.234;7.268;2022-11-23T04:08:18;6.30;99.90
11079;DHT22;5592;49.234;7.268;2022-11-23T04:10:44;6.30;99.90
11079;DHT22;5592;49.234;7.268;2022-11-23T04:13:10;6.30;99.90
11079;DHT22;5592;49.234;7.268;2022-11-23T04:15:35;6.40;99.90
11079;DHT22;5592;49.234;7.268;2022-11-23T04:18:01;6.40;99.90
11079;DHT22;5592;49.234;7.268;2022-11-23T04:20:27;6.40;99.90
11079;DHT22;5592;49.234;7.268;2022-11-23T04:22:52;6.50;99.90
11079;DHT22;5592;49.234;7.268;2022-11-23T04:25:18;6.40;99.90
11079;DHT22;5592;49.234;7.268;2022-11-23T04:27:44;6.40;99.90
11079;DHT22;5592;49.234;7.268;2022-11-23T04:30:10;6.50;99.90
11079;DHT22;5592;49.234;7.268;2022-11-23T04:32:36;6.50;99.90
11079;DHT22;5592;49.234;7.268;2022-11-23T04:35:02;6.50;99.90
11079;DHT22;5592;49.234;7.268;2022-11-23T04:37:27;6.50;99.90
11079;DHT22;5592;49.234;7.268;2022-11-23T04:39:53;6.50;99.90
11079;DHT22;5592;49.234;7.268;2022-11-23T04:42:19;6.50;99.90
11079;DHT22;5592;49.234;7.268;2022-11-23T04:44:45;6.60;99.90
11079;DHT22;5592;49.234;7.268;2022-11-23T04:47:11;6.50;99.90
11079;DHT22;5592;49.234;7.268;2022-11-23T04:49:36;6.60;99.90
11079;DHT22;5592;49.234;7.268;2022-11-23T04:52:03;6.60;99.90
11079;DHT22;5592;49.234;7.268;2022-11-23T04:54:29;6.60;99.90
11079;DHT22;5592;49.234;7.268;2022-11-23T04:56:54;6.60;99.90
11079;DHT22;5592;49.234;7.268;2022-11-23T04:59:21;6.50;99.90
11079;DHT22;5592;49.234;7.268;2022-11-23T05:01:49;6.50;99.90
11079;DHT22;5592;49.234;7.268;2022-11-23T05:04:17;6.40;99.90
11079;DHT22;5592;49.234;7.268;2022-11-23T05:06:43;6.40;99.90
11079;DHT22;5592;49.234;7.268;2022-11-23T05:09:09;6.40;99.90
11079;DHT22;5592;49.234;7.268;2022-11-23T05:11:34;6.40;99.90
11079;DHT22;5592;49.234;7.268;2022-11-23T05:14:00;6.50;99.90
11079;DHT22;5592;49.234;7.268;2022-11-23T05:16:25;6.50;99.90
11079;DHT22;5592;49.234;7.268;2022-11-23T05:18:51;6.50;99.90
11079;DHT22;5592;49.234;7.268;2022-11-23T05:21:16;6.50;99.90
11079;DHT22;5592;49.234;7.268;2022-11-23T05:23:42;6.50;99.90
11079;DHT22;5592;49.234;7.268;2022-11-23T05:26:08;6.50;99.90
11079;DHT22;5592;49.234;7.268;2022-11-23T05:28:33;6.50;99.90
11079;DHT22;5592;49.234;7.268;2022-11-23T05:30:59;6.50;99.90
11079;DHT22;5592;49.234;7.268;2022-11-23T05:33:25;6.50;99.90
11079;DHT22;5592;49.234;7.268;2022-11-23T05:35:50;6.50;99.90
11079;DHT22;5592;49.234;7.268;2022-11-23T05:38:16;6.50;99.90
11079;DHT22;5592;49.234;7.268;2022-11-23T05:40:44;6.50;99.90
11079;DHT22;5592;49.234;7.268;2022-11-23T05:43:09;6.50;99.90
11079;DHT22;5592;49.234;7.268;2022-11-23T05:45:35;6.50;99.90
11079;DHT22;5592;49.234;7.268;2022-11-23T05:48:00;6.40;99.90
11079;DHT22;5592;49.234;7.268;2022-11-23T05:50:26;6.40;99.90
11079;DHT22;5592;49.234;7.268;2022-11-23T05:52:54;6.40;99.90
11079;DHT22;5592;49.234;7.268;2022-11-23T05:55:20;6.30;99.90
11079;DHT22;5592;49.234;7.268;2022-11-23T05:57:45;6.20;99.90
11079;DHT22;5592;49.234;7.268;2022-11-23T06:00:11;6.20;99.90
11079;DHT22;5592;49.234;7.268;2022-11-23T06:02:37;6.10;99.90
11079;DHT22;5592;49.234;7.268;2022-11-23T06:05:03;6.00;99.90
11079;DHT22;5592;49.234;7.268;2022-11-23T06:10:05;5.80;99.90
11079;DHT22;5592;49.234;7.268;2022-11-23T06:12:31;5.80;99.90
11079;DHT22;5592;49.234;7.268;2022-11-23T06:14:57;5.70;99.90
11079;DHT22;5592;49.234;7.268;2022-11-23T06:17:23;5.60;99.90
11079;DHT22;5592;49.234;7.268;2022-11-23T06:19:49;5.50;99.90
11079;DHT22;5592;49.234;7.268;2022-11-23T06:22:14;5.40;99.90
11079;DHT22;5592;49.234;7.268;2022-11-23T06:24:41;5.40;99.90
11079;DHT22;5592;49.234;7.268;2022-11-23T06:27:09;5.30;99.90
11079;DHT22;5592;49.234;7.268;2022-11-23T06:29:38;5.20;99.90
11079;DHT22;5592;49.234;7.268;2022-11-23T06:32:05;5.10;99.90
11079;DHT22;5592;49.234;7.268;2022-11-23T06:34:33;5.10;99.90
11079;DHT22;5592;49.234;7.268;2022-11-23T06:36:58;5.00;99.90
11079;DHT22;5592;49.234;7.268;2022-11-23T06:39:24;4.90;99.90
11079;DHT22;5592;49.234;7.268;2022-11-23T06:41:49;4.90;99.90
11079;DHT22;5592;49.234;7.268;2022-11-23T06:44:15;4.80;99.90
11079;DHT22;5592;49.234;7.268;2022-11-23T06:46:41;4.70;99.90
11079;DHT22;5592;49.234;7.268;2022-11-23T06:49:09;4.60;99.90
11079;DHT22;5592;49.234;7.268;2022-11-23T06:51:38;4.50;99.90
11079;DHT22;5592;49.234;7.268;2022-11-23T06:54:03;4.50;99.90
11079;DHT22;5592;49.234;7.268;2022-11-23T06:56:30;4.40;99.90
11079;DHT22;5592;49.234;7.268;2022-11-23T06:58:56;4.30;99.90
11079;DHT22;5592;49.234;7.268;2022-11-23T07:01:21;4.30;99.90
11079;DHT22;5592;49.234;7.268;2022-11-23T07:03:47;4.20;99.90
11079;DHT22;5592;49.234;7.268;2022-11-23T07:06:13;4.00;99.90
11079;DHT22;5592;49.234;7.268;2022-11-23T07:08:38;3.90;99.90
11079;DHT22;5592;49.234;7.268;2022-11-23T07:11:09;3.90;99.90
11079;DHT22;5592;49.234;7.268;2022-11-23T07:13:35;3.90;99.90
11079;DHT22;5592;49.234;7.268;2022-11-23T07:16:00;3.80;99.90
11079;DHT22;5592;49.234;7.268;2022-11-23T07:18:26;3.80;99.90
11079;DHT22;5592;49.234;7.268;2022-11-23T07:20:52;3.80;99.90
11079;DHT22;5592;49.234;7.268;2022-11-23T07:23:17;3.80;99.90
11079;DHT22;5592;49.234;7.268;2022-11-23T07:25:43;3.80;99.90
11079;DHT22;5592;49.234;7.268;2022-11-23T07:28:10;3.80;99.90
11079;DHT22;5592;49.234;7.268;2022-11-23T07:30:36;3.80;99.90
11079;DHT22;5592;49.234;7.268;2022-11-23T07:33:06;3.80;99.90
11079;DHT22;5592;49.234;7.268;2022-11-23T07:35:36;3.90;99.90
11079;DHT22;5592;49.234;7.268;2022-11-23T07:38:02;4.00;99.90
11079;DHT22;5592;49.234;7.268;2022-11-23T07:40:28;4.20;99.90
11079;DHT22;5592;49.234;7.268;2022-11-23T07:42:59;4.30;99.90
11079;DHT22;5592;49.234;7.268;2022-11-23T07:45:25;4.40;99.90
11079;DHT22;5592;49.234;7.268;2022-11-23T07:48:01;4.90;99.90
11079;DHT22;5592;49.234;7.268;2022-11-23T07:50:27;5.50;99.90
11079;DHT22;5592;49.234;7.268;2022-11-23T07:52:55;6.20;99.90
11079;DHT22;5592;49.234;7.268;2022-11-23T07:55:22;6.80;99.90
11079;DHT22;5592;49.234;7.268;2022-11-23T07:57:54;7.60;99.90
11079;DHT22;5592;49.234;7.268;2022-11-23T08:00:23;8.50;99.90
11079;DHT22;5592;49.234;7.268;2022-11-23T08:02:49;9.60;99.90
11079;DHT22;5592;49.234;7.268;2022-11-23T08:05:16;10.60;99.90
11079;DHT22;5592;49.234;7.268;2022-11-23T08:07:43;11.50;99.90
11079;DHT22;5592;49.234;7.268;2022-11-23T08:10:10;12.30;99.90
11079;DHT22;5592;49.234;7.268;2022-11-23T08:12:36;13.00;99.90
11079;DHT22;5592;49.234;7.268;2022-11-23T08:15:02;13.30;99.90
11079;DHT22;5592;49.234;7.268;2022-11-23T08:17:28;13.80;99.90
11079;DHT22;5592;49.234;7.268;2022-11-23T08:19:53;14.20;99.90
11079;DHT22;5592;49.234;7.268;2022-11-23T08:22:19;14.40;99.90
11079;DHT22;5592;49.234;7.268;2022-11-23T08:24:44;14.70;99.90
11079;DHT22;5592;49.234;7.268;2022-11-23T08:27:10;14.80;99.90
11079;DHT22;5592;49.234;7.268;2022-11-23T08:29:36;15.20;99.90
11079;DHT22;5592;49.234;7.268;2022-11-23T08:32:01;15.40;99.90
11079;DHT22;5592;49.234;7.268;2022-11-23T08:34:27;16.10;99.90
11079;DHT22;5592;49.234;7.268;2022-11-23T08:36:52;16.20;99.90
11079;DHT22;5592;49.234;7.268;2022-11-23T08:39:18;16.40;99.90
11079;DHT22;5592;49.234;7.268;2022-11-23T08:41:44;16.80;99.90
11079;DHT22;5592;49.234;7.268;2022-11-23T08:44:10;17.10;99.90
11079;DHT22;5592;49.234;7.268;2022-11-23T08:46:39;17.30;99.90
11079;DHT22;5592;49.234;7.268;2022-11-23T08:49:05;17.40;99.90
11079;DHT22;5592;49.234;7.268;2022-11-23T08:51:32;17.60;99.90
11079;DHT22;5592;49.234;7.268;2022-11-23T08:54:06;17.70;99.90
11079;DHT22;5592;49.234;7.268;2022-11-23T08:56:33;17.60;99.90
11079;DHT22;5592;49.234;7.268;2022-11-23T08:58:58;17.80;99.90
11079;DHT22;5592;49.234;7.268;2022-11-23T09:01:24;17.80;99.90
11079;DHT22;5592;49.234;7.268;2022-11-23T09:03:49;17.90;99.90
11079;DHT22;5592;49.234;7.268;2022-11-23T09:06:15;18.20;99.90
11079;DHT22;5592;49.234;7.268;2022-11-23T09:08:41;18.10;99.90
11079;DHT22;5592;49.234;7.268;2022-11-23T09:11:09;18.30;99.90
11079;DHT22;5592;49.234;7.268;2022-11-23T09:13:36;18.60;99.90
11079;DHT22;5592;49.234;7.268;2022-11-23T09:16:05;18.50;99.90
11079;DHT22;5592;49.234;7.268;2022-11-23T09:18:33;18.90;99.90
11079;DHT22;5592;49.234;7.268;2022-11-23T09:21:02;19.10;99.90
11079;DHT22;5592;49.234;7.268;2022-11-23T09:23:29;18.90;99.90
11079;DHT22;5592;49.234;7.268;2022-11-23T09:25:57;19.10;99.90
11079;DHT22;5592;49.234;7.268;2022-11-23T09:28:26;19.10;99.90
11079;DHT22;5592;49.234;7.268;2022-11-23T09:31:12;19.00;99.90
11079;DHT22;5592;49.234;7.268;2022-11-23T09:33:38;19.10;99.90
11079;DHT22;5592;49.234;7.268;2022-11-23T09:36:05;19.10;99.90
11079;DHT22;5592;49.234;7.268;2022-11-23T09:38:31;18.90;99.90
11079;DHT22;5592;49.234;7.268;2022-11-23T09:44:22;18.70;99.90
11079;DHT22;5592;49.234;7.268;2022-11-23T09:50:07;18.90;99.90
11079;DHT22;5592;49.234;7.268;2022-11-23T09:52:40;19.00;99.90
11079;DHT22;5592;49.234;7.268;2022-11-23T09:55:17;19.20;99.90
11079;DHT22;5592;49.234;7.268;2022-11-23T09:57:45;18.90;99.90
11079;DHT22;5592;49.234;7.268;2022-11-23T10:00:21;18.90;99.90
11079;DHT22;5592;49.234;7.268;2022-11-23T10:02:47;18.60;99.90
11079;DHT22;5592;49.234;7.268;2022-11-23T10:05:24;18.40;99.90
11079;DHT22;5592;49.234;7.268;2022-11-23T10:10:43;18.40;99.90
11079;DHT22;5592;49.234;7.268;2022-11-23T10:13:16;18.30;99.90
11079;DHT22;5592;49.234;7.268;2022-11-23T10:24:17;18.00;99.90
11079;DHT22;5592;49.234;7.268;2022-11-23T10:26:47;18.30;99.90
11079;DHT22;5592;49.234;7.268;2022-11-23T10:29:16;17.90;99.90
11079;DHT22;5592;49.234;7.268;2022-11-23T10:31:48;17.20;99.90
11079;DHT22;5592;49.234;7.268;2022-11-23T10:34:18;16.90;99.90
11079;DHT22;5592;49.234;7.268;2022-11-23T10:36:45;17.10;99.90
11079;DHT22;5592;49.234;7.268;2022-11-23T10:41:39;16.70;99.90
11079;DHT22;5592;49.234;7.268;2022-11-23T10:44:28;16.70;99.90
11079;DHT22;5592;49.234;7.268;2022-11-23T10:46:54;16.50;99.90
11079;DHT22;5592;49.234;7.268;2022-11-23T10:51:58;15.40;99.90
11079;DHT22;5592;49.234;7.268;2022-11-23T10:59:59;14.50;99.90
11079;DHT22;5592;49.234;7.268;2022-11-23T11:02:25;14.40;99.90
11079;DHT22;5592;49.234;7.268;2022-11-23T11:05:12;14.30;99.90
11079;DHT22;5592;49.234;7.268;2022-11-23T11:07:38;14.30;99.90
11079;DHT22;5592;49.234;7.268;2022-11-23T11:10:04;14.10;99.90
11079;DHT22;5592;49.234;7.268;2022-11-23T11:12:33;13.80;99.90
11079;DHT22;5592;49.234;7.268;2022-11-23T11:17:36;14.40;99.90
11079;DHT22;5592;49.234;7.268;2022-11-23T11:22:53;14.80;99.90
11079;DHT22;5592;49.234;7.268;2022-11-23T11:25:37;14.50;99.90
11079;DHT22;5592;49.234;7.268;2022-11-23T11:28:26;14.40;99.90
11079;DHT22;5592;49.234;7.268;2022-11-23T11:36:13;13.00;99.90
11079;DHT22;5592;49.234;7.268;2022-11-23T11:38:45;12.70;99.90
11079;DHT22;5592;49.234;7.268;2022-11-23T11:41:14;12.50;99.90
11079;DHT22;5592;49.234;7.268;2022-11-23T11:43:41;12.00;99.90
11079;DHT22;5592;49.234;7.268;2022-11-23T11:46:39;12.00;99.90
11079;DHT22;5592;49.234;7.268;2022-11-23T11:49:06;11.80;99.90
11079;DHT22;5592;49.234;7.268;2022-11-23T11:51:43;11.80;99.90
11079;DHT22;5592;49.234;7.268;2022-11-23T11:54:21;11.80;99.90
11079;DHT22;5592;49.234;7.268;2022-11-23T11:56:51;11.60;99.90
11079;DHT22;5592;49.234;7.268;2022-11-23T12:02:15;11.70;99.90
11079;DHT22;5592;49.234;7.268;2022-11-23T12:04:44;11.70;99.90
11079;DHT22;5592;49.234;7.268;2022-11-23T12:07:34;11.60;99.90
11079;DHT22;5592;49.234;7.268;2022-11-23T12:10:20;11.30;99.90
11079;DHT22;5592;49.234;7.268;2022-11-23T12:12:49;11.40;99.90
11079;DHT22;5592;49.234;7.268;2022-11-23T12:15:25;11.30;99.90
11079;DHT22;5592;49.234;7.268;2022-11-23T12:21:15;11.10;99.90
11079;DHT22;5592;49.234;7.268;2022-11-23T12:23:55;10.90;99.90
11079;DHT22;5592;49.234;7.268;2022-11-23T12:26:56;10.80;99.90
11079;DHT22;5592;49.234;7.268;2022-11-23T12:32:28;10.70;99.90
11079;DHT22;5592;49.234;7.268;2022-11-23T12:40:21;10.50;99.90
11079;DHT22;5592;49.234;7.268;2022-11-23T12:42:49;10.50;99.90
11079;DHT22;5592;49.234;7.268;2022-11-23T12:45:42;10.40;99.90
11079;DHT22;5592;49.234;7.268;2022-11-23T12:51:03;10.40;99.90
11079;DHT22;5592;49.234;7.268;2022-11-23T12:53:44;10.40;99.90
11079;DHT22;5592;49.234;7.268;2022-11-23T12:58:58;10.30;99.90
11079;DHT22;5592;49.234;7.268;2022-11-23T13:01:36;10.20;99.90
11079;DHT22;5592;49.234;7.268;2022-11-23T13:07:03;10.10;99.90
11079;DHT22;5592;49.234;7.268;2022-11-23T13:12:42;9.80;99.90
11079;DHT22;5592;49.234;7.268;2022-11-23T13:22:56;9.60;99.90
11079;DHT22;5592;49.234;7.268;2022-11-23T13:25:25;9.70;99.90
11079;DHT22;5592;49.234;7.268;2022-11-23T13:32:58;10.00;99.90
11079;DHT22;5592;49.234;7.268;2022-11-23T13:40:23;10.00;99.90
11079;DHT22;5592;49.234;7.268;2022-11-23T13:42:50;10.00;99.90
11079;DHT22;5592;49.234;7.268;2022-11-23T13:45:23;10.00;99.90
11079;DHT22;5592;49.234;7.268;2022-11-23T13:50:39;10.10;99.90
11079;DHT22;5592;49.234;7.268;2022-11-23T13:53:22;10.20;99.90
11079;DHT22;5592;49.234;7.268;2022-11-23T13:55:51;10.10;99.90
11079;DHT22;5592;49.234;7.268;2022-11-23T14:00:57;10.00;99.90
11079;DHT22;5592;49.234;7.268;2022-11-23T14:06:46;9.70;99.90
11079;DHT22;5592;49.234;7.268;2022-11-23T14:17:29;9.50;99.90
11079;DHT22;5592;49.234;7.268;2022-11-23T14:20:13;9.60;99.90
11079;DHT22;5592;49.234;7.268;2022-11-23T14:33:52;9.30;99.90
11079;DHT22;5592;49.234;7.268;2022-11-23T14:37:00;9.30;99.90
11079;DHT22;5592;49.234;7.268;2022-11-23T14:42:13;9.20;99.90
11079;DHT22;5592;49.234;7.268;2022-11-23T14:44:41;9.10;99.90
11079;DHT22;5592;49.234;7.268;2022-11-23T14:47:09;9.10;99.90
11079;DHT22;5592;49.234;7.268;2022-11-23T14:49:36;9.10;99.90
11079;DHT22;5592;49.234;7.268;2022-11-23T14:52:18;9.10;99.90
11079;DHT22;5592;49.234;7.268;2022-11-23T14:54:49;9.00;99.90
11079;DHT22;5592;49.234;7.268;2022-11-23T14:57:16;9.10;99.90
11079;DHT22;5592;49.234;7.268;2022-11-23T14:59:47;9.00;99.90
11079;DHT22;5592;49.234;7.268;2022-11-23T15:02:21;9.10;99.90
11079;DHT22;5592;49.234;7.268;2022-11-23T15:10:30;9.10;99.90
11079;DHT22;5592;49.234;7.268;2022-11-23T15:12:57;9.00;99.90
11079;DHT22;5592;49.234;7.268;2022-11-23T15:15:25;8.90;99.90
11079;DHT22;5592;49.234;7.268;2022-11-23T15:17:59;8.80;99.90
11079;DHT22;5592;49.234;7.268;2022-11-23T15:20:36;8.60;99.90
11079;DHT22;5592;49.234;7.268;2022-11-23T15:23:04;8.50;99.90
11079;DHT22;5592;49.234;7.268;2022-11-23T15:25:30;8.40;99.90
11079;DHT22;5592;49.234;7.268;2022-11-23T15:27:56;8.40;99.90
11079;DHT22;5592;49.234;7.268;2022-11-23T15:30:26;8.30;99.90
11079;DHT22;5592;49.234;7.268;2022-11-23T15:33:07;8.20;99.90
11079;DHT22;5592;49.234;7.268;2022-11-23T15:35:36;8.10;99.90
11079;DHT22;5592;49.234;7.268;2022-11-23T15:38:10;8.00;99.90
11079;DHT22;5592;49.234;7.268;2022-11-23T15:40:36;7.90;99.90
11079;DHT22;5592;49.234;7.268;2022-11-23T15:43:03;7.80;99.90
11079;DHT22;5592;49.234;7.268;2022-11-23T15:48:25;7.70;99.90
11079;DHT22;5592;49.234;7.268;2022-11-23T15:51:05;7.70;99.90
11079;DHT22;5592;49.234;7.268;2022-11-23T15:56:21;7.70;99.90
11079;DHT22;5592;49.234;7.268;2022-11-23T15:58:48;7.60;99.90
11079;DHT22;5592;49.234;7.268;2022-11-23T16:01:15;7.60;99.90
11079;DHT22;5592;49.234;7.268;2022-11-23T16:08:43;7.40;99.90
11079;DHT22;5592;49.234;7.268;2022-11-23T16:11:26;7.30;99.90
11079;DHT22;5592;49.234;7.268;2022-11-23T16:14:19;7.30;99.90
11079;DHT22;5592;49.234;7.268;2022-11-23T16:16:47;7.30;99.90
11079;DHT22;5592;49.234;7.268;2022-11-23T16:19:29;7.20;99.90
11079;DHT22;5592;49.234;7.268;2022-11-23T16:22:00;7.30;99.90
11079;DHT22;5592;49.234;7.268;2022-11-23T16:24:28;7.40;99.90
11079;DHT22;5592;49.234;7.268;2022-11-23T16:26:56;7.40;99.90
11079;DHT22;5592;49.234;7.268;2022-11-23T16:29:32;7.40;99.90
11079;DHT22;5592;49.234;7.268;2022-11-23T16:32:00;7.40;99.90
11079;DHT22;5592;49.234;7.268;2022-11-23T16:34:26;7.30;99.90
11079;DHT22;5592;49.234;7.268;2022-11-23T16:36:53;7.20;99.90
11079;DHT22;5592;49.234;7.268;2022-11-23T16:39:21;7.20;99.90
11079;DHT22;5592;49.234;7.268;2022-11-23T16:41:47;7.20;99.90
11079;DHT22;5592;49.234;7.268;2022-11-23T16:44:13;7.20;99.90
11079;DHT22;5592;49.234;7.268;2022-11-23T16:46:38;7.20;99.90
11079;DHT22;5592;49.234;7.268;2022-11-23T16:49:04;7.10;99.90
11079;DHT22;5592;49.234;7.268;2022-11-23T16:51:37;7.10;99.90
11079;DHT22;5592;49.234;7.268;2022-11-23T16:54:02;7.10;99.90
11079;DHT22;5592;49.234;7.268;2022-11-23T16:56:28;7.10;99.90
11079;DHT22;5592;49.234;7.268;2022-11-23T16:58:54;7.00;99.90
11079;DHT22;5592;49.234;7.268;2022-11-23T17:01:22;7.00;99.90
11079;DHT22;5592;49.234;7.268;2022-11-23T17:03:48;7.00;99.90
11079;DHT22;5592;49.234;7.268;2022-11-23T17:06:15;7.00;99.90
11079;DHT22;5592;49.234;7.268;2022-11-23T17:08:45;7.10;99.90
11079;DHT22;5592;49.234;7.268;2022-11-23T17:11:22;7.10;99.90
11079;DHT22;5592;49.234;7.268;2022-11-23T17:13:50;7.10;99.90
11079;DHT22;5592;49.234;7.268;2022-11-23T17:16:19;7.10;99.90
11079;DHT22;5592;49.234;7.268;2022-11-23T17:18:45;7.10;99.90
11079;DHT22;5592;49.234;7.268;2022-11-23T17:21:11;7.10;99.90
11079;DHT22;5592;49.234;7.268;2022-11-23T17:23:37;7.00;99.90
11079;DHT22;5592;49.234;7.268;2022-11-23T17:28:45;7.10;99.90
11079;DHT22;5592;49.234;7.268;2022-11-23T17:31:11;7.10;99.90
11079;DHT22;5592;49.234;7.268;2022-11-23T17:33:36;7.20;99.90
11079;DHT22;5592;49.234;7.268;2022-11-23T17:36:03;7.10;99.90
11079;DHT22;5592;49.234;7.268;2022-11-23T17:38:29;7.20;99.90
11079;DHT22;5592;49.234;7.268;2022-11-23T17:40:55;7.20;99.90
11079;DHT22;5592;49.234;7.268;2022-11-23T17:43:20;7.20;99.90
11079;DHT22;5592;49.234;7.268;2022-11-23T17:45:46;7.20;99.90
11079;DHT22;5592;49.234;7.268;2022-11-23T17:48:12;7.30;99.90
11079;DHT22;5592;49.234;7.268;2022-11-23T17:50:39;7.30;99.90
11079;DHT22;5592;49.234;7.268;2022-11-23T17:53:04;7.30;99.90
11079;DHT22;5592;49.234;7.268;2022-11-23T17:55:30;7.30;99.90
11079;DHT22;5592;49.234;7.268;2022-11-23T17:57:56;7.40;99.90
11079;DHT22;5592;49.234;7.268;2022-11-23T18:00:22;7.40;99.90
11079;DHT22;5592;49.234;7.268;2022-11-23T18:02:48;7.40;99.90
11079;DHT22;5592;49.234;7.268;2022-11-23T18:05:14;7.40;99.90
11079;DHT22;5592;49.234;7.268;2022-11-23T18:07:40;7.50;99.90
11079;DHT22;5592;49.234;7.268;2022-11-23T18:10:08;7.50;99.90
11079;DHT22;5592;49.234;7.268;2022-11-23T18:12:34;7.60;99.90
11079;DHT22;5592;49.234;7.268;2022-11-23T18:15:00;7.50;99.90
11079;DHT22;5592;49.234;7.268;2022-11-23T18:17:25;7.60;99.90
11079;DHT22;5592;49.234;7.268;2022-11-23T18:19:51;7.60;99.90
11079;DHT22;5592;49.234;7.268;2022-11-23T18:22:17;7.70;99.90
11079;DHT22;5592;49.234;7.268;2022-11-23T18:24:43;7.70;99.90
11079;DHT22;5592;49.234;7.268;2022-11-23T18:27:08;7.70;99.90
11079;DHT22;5592;49.234;7.268;2022-11-23T18:29:34;7.60;99.90